createdAt,value
2023-01-10T00:01:18.853Z,7.60
2023-01-10T00:03:52.371Z,8.70
2023-01-10T00:06:25.973Z,9.40
2023-01-10T00:08:59.965Z,7.47
2023-01-10T00:11:50.713Z,6.73
2023-01-10T00:14:29.963Z,8.63
2023-01-10T00:17:04.160Z,8.73
2023-01-10T00:19:37.596Z,6.10
2023-01-10T00:22:23.077Z,8.00
2023-01-10T00:24:56.870Z,10.20
2023-01-10T00:27:30.767Z,9.57
2023-01-10T00:30:14.408Z,7.20
2023-01-10T00:32:47.713Z,6.93
2023-01-10T00:35:21.221Z,6.53
2023-01-10T00:38:00.576Z,8.27
2023-01-10T00:40:35.086Z,6.70
2023-01-10T00:43:23.962Z,7.17
2023-01-10T00:45:59.243Z,6.83
2023-01-10T00:48:33.062Z,7.80
2023-01-10T00:51:07.544Z,8.00
2023-01-10T00:53:40.878Z,8.27
2023-01-10T00:56:14.471Z,7.13
2023-01-10T00:58:48.034Z,7.50
2023-01-10T01:01:23.661Z,5.83
2023-01-10T01:03:59.729Z,7.43
2023-01-10T01:06:33.256Z,5.90
2023-01-10T01:09:07.093Z,7.03
2023-01-10T01:11:40.935Z,5.60
2023-01-10T01:14:14.781Z,6.43
2023-01-10T01:16:50.163Z,5.97
2023-01-10T01:19:23.637Z,7.43
2023-01-10T01:21:57.495Z,5.40
2023-01-10T01:24:31.699Z,5.50
2023-01-10T01:27:05.724Z,5.37
2023-01-10T01:29:43.432Z,8.47
2023-01-10T01:32:19.084Z,7.07
2023-01-10T01:34:52.993Z,6.47
2023-01-10T01:37:26.456Z,7.63
2023-01-10T01:39:59.923Z,9.23
2023-01-10T01:42:36.896Z,5.30
2023-01-10T01:45:40.173Z,9.53
2023-01-10T01:48:37.458Z,6.33
2023-01-10T01:51:17.599Z,6.43
2023-01-10T01:53:58.200Z,6.90
2023-01-10T01:56:39.112Z,7.37
2023-01-10T01:59:19.499Z,5.83
2023-01-10T02:01:58.915Z,5.20
2023-01-10T02:04:42.514Z,5.73
2023-01-10T02:07:17.175Z,7.00
2023-01-10T02:09:57.202Z,6.17
2023-01-10T02:12:34.592Z,5.07
2023-01-10T02:15:09.912Z,9.43
2023-01-10T02:17:44.224Z,8.07
2023-01-10T02:20:22.539Z,7.03
2023-01-10T02:23:28.089Z,4.13
2023-01-10T02:26:38.963Z,6.13
2023-01-10T02:30:14.918Z,6.53
2023-01-10T02:33:05.404Z,7.70
2023-01-10T02:36:08.689Z,7.10
2023-01-10T02:38:59.622Z,5.57
2023-01-10T02:41:43.495Z,5.63
2023-01-10T02:44:23.895Z,5.10
2023-01-10T02:46:58.613Z,8.00
2023-01-10T02:49:44.357Z,7.60
2023-01-10T02:52:23.986Z,6.60
2023-01-10T02:55:04.101Z,6.70
2023-01-10T02:57:53.197Z,5.53
2023-01-10T03:00:47.145Z,5.57
2023-01-10T03:03:35.232Z,7.03
2023-01-10T03:06:29.187Z,5.00
2023-01-10T03:09:13.839Z,6.67
2023-01-10T03:11:51.547Z,5.17
2023-01-10T03:14:29.562Z,7.07
2023-01-10T03:17:09.834Z,7.77
2023-01-10T03:19:51.160Z,4.50
2023-01-10T03:22:28.092Z,5.33
2023-01-10T03:25:07.411Z,4.17
2023-01-10T03:27:50.540Z,6.50
2023-01-10T03:30:34.698Z,8.00
2023-01-10T03:33:08.971Z,4.20
2023-01-10T03:35:58.885Z,5.93
2023-01-10T03:38:45.341Z,6.77
2023-01-10T03:41:35.176Z,8.43
2023-01-10T03:44:37.001Z,5.57
2023-01-10T03:47:15.872Z,6.30
2023-01-10T03:49:56.665Z,5.67
2023-01-10T03:52:31.479Z,4.63
2023-01-10T03:55:11.515Z,9.07
2023-01-10T03:57:46.265Z,5.27
2023-01-10T04:00:21.907Z,8.13
2023-01-10T04:02:55.722Z,7.23
2023-01-10T04:05:29.499Z,6.23
2023-01-10T04:08:03.439Z,6.30
2023-01-10T04:10:38.583Z,7.63
2023-01-10T04:13:12.438Z,7.73
2023-01-10T04:15:46.117Z,6.57
2023-01-10T04:18:19.772Z,7.30
2023-01-10T04:20:53.344Z,4.47
2023-01-10T04:23:26.752Z,7.70
2023-01-10T04:26:01.742Z,7.10
2023-01-10T04:28:35.214Z,5.40
2023-01-10T04:31:08.885Z,6.30
2023-01-10T04:33:42.729Z,4.67
2023-01-10T04:36:16.233Z,6.60
2023-01-10T04:38:49.788Z,4.27
2023-01-10T04:41:24.755Z,5.87
2023-01-10T04:43:58.726Z,7.27
2023-01-10T04:46:32.803Z,5.47
2023-01-10T04:49:06.349Z,5.63
2023-01-10T04:51:40.273Z,5.27
2023-01-10T04:54:13.734Z,7.17
2023-01-10T04:56:48.850Z,6.83
2023-01-10T04:59:22.647Z,4.83
2023-01-10T05:01:58.570Z,6.43
2023-01-10T05:04:32.526Z,6.47
2023-01-10T05:07:05.846Z,5.30
2023-01-10T05:09:39.314Z,7.27
2023-01-10T05:12:14.146Z,5.13
2023-01-10T05:14:47.703Z,6.20
2023-01-10T05:17:21.230Z,4.30
2023-01-10T05:19:54.792Z,5.00
2023-01-10T05:22:28.542Z,5.93
2023-01-10T05:25:02.413Z,5.53
2023-01-10T05:27:37.711Z,8.13
2023-01-10T05:30:14.259Z,8.07
2023-01-10T05:32:48.409Z,6.70
2023-01-10T05:35:22.252Z,7.60
2023-01-10T05:37:55.777Z,9.03
2023-01-10T05:40:29.478Z,10.60
2023-01-10T05:43:04.608Z,6.73
2023-01-10T05:45:38.097Z,6.23
2023-01-10T05:48:11.888Z,8.57
2023-01-10T05:50:45.968Z,7.40
2023-01-10T05:53:20.103Z,6.07
2023-01-10T05:55:58.824Z,7.37
2023-01-10T05:58:33.799Z,7.57
2023-01-10T06:01:07.255Z,6.70
2023-01-10T06:03:41.008Z,7.60
2023-01-10T06:06:14.856Z,6.80
2023-01-10T06:08:48.583Z,9.37
2023-01-10T06:11:22.033Z,6.70
2023-01-10T06:13:57.689Z,8.63
2023-01-10T06:16:31.524Z,7.83
2023-01-10T06:19:05.234Z,7.57
2023-01-10T06:21:38.642Z,8.33
2023-01-10T06:24:13.383Z,9.73
2023-01-10T06:26:46.984Z,6.87
2023-01-10T06:29:22.346Z,10.20
2023-01-10T06:31:56.299Z,8.13
2023-01-10T06:34:30.158Z,7.40
2023-01-10T06:37:03.781Z,8.57
2023-01-10T06:39:37.720Z,7.63
2023-01-10T06:42:11.513Z,10.23
2023-01-10T06:44:57.418Z,8.83
2023-01-10T06:47:31.217Z,6.83
2023-01-10T06:50:07.096Z,9.30
2023-01-10T06:52:40.683Z,8.63
2023-01-10T06:55:14.622Z,8.37
2023-01-10T06:57:48.368Z,6.37
2023-01-10T07:00:25.305Z,8.67
2023-01-10T07:03:01.494Z,10.87
2023-01-10T07:05:36.034Z,8.07
2023-01-10T07:08:09.999Z,8.20
2023-01-10T07:10:45.074Z,8.47
2023-01-10T07:13:18.800Z,6.77
2023-01-10T07:15:53.885Z,11.23
2023-01-10T07:18:27.704Z,9.87
2023-01-10T07:21:01.655Z,12.33
2023-01-10T07:23:35.597Z,9.07
2023-01-10T07:26:17.556Z,10.47
2023-01-10T07:28:52.771Z,10.03
2023-01-10T07:31:28.149Z,8.67
2023-01-10T07:34:01.941Z,10.03
2023-01-10T07:36:39.364Z,5.70
2023-01-10T07:39:13.307Z,8.80
2023-01-10T07:41:49.871Z,9.83
2023-01-10T07:44:24.425Z,9.70
2023-01-10T07:46:59.558Z,9.67
2023-01-10T07:49:32.964Z,14.00
2023-01-10T07:52:09.338Z,9.20
2023-01-10T07:54:43.050Z,9.20
2023-01-10T07:57:16.884Z,10.03
2023-01-10T07:59:50.405Z,9.73
2023-01-10T08:02:25.369Z,9.60
2023-01-10T08:04:59.253Z,11.23
2023-01-10T08:07:33.682Z,10.53
2023-01-10T08:10:09.115Z,10.60
2023-01-10T08:12:42.875Z,12.80
2023-01-10T08:15:16.251Z,7.73
2023-01-10T08:17:51.479Z,9.30
2023-01-10T08:20:25.350Z,10.23
2023-01-10T08:22:59.647Z,10.90
2023-01-10T08:25:33.473Z,8.97
2023-01-10T08:28:07.091Z,14.20
2023-01-10T08:30:41.606Z,9.53
2023-01-10T08:33:16.956Z,12.57
2023-01-10T08:35:51.033Z,9.73
2023-01-10T08:38:24.734Z,8.93
2023-01-10T08:40:59.189Z,9.27
2023-01-10T08:43:33.542Z,11.33
2023-01-10T08:46:07.674Z,9.00
2023-01-10T08:48:44.415Z,12.30
2023-01-10T08:51:18.102Z,11.77
2023-01-10T08:53:52.170Z,11.50
2023-01-10T08:56:25.822Z,13.03
2023-01-10T08:59:00.786Z,9.53
2023-01-10T09:01:34.675Z,10.60
2023-01-10T09:04:09.858Z,9.00
2023-01-10T09:06:43.751Z,14.70
2023-01-10T09:09:17.485Z,10.87
2023-01-10T09:11:51.319Z,11.33
2023-01-10T09:14:25.018Z,9.77
2023-01-10T09:16:58.886Z,8.63
2023-01-10T09:19:34.962Z,11.77
2023-01-10T09:22:08.908Z,12.30
2023-01-10T09:24:44.059Z,8.97
2023-01-10T09:27:17.927Z,11.33
2023-01-10T09:29:51.645Z,8.30
2023-01-10T09:32:25.615Z,7.83
2023-01-10T09:35:00.515Z,13.30
2023-01-10T09:37:34.619Z,12.80
2023-01-10T09:40:11.176Z,11.70
2023-01-10T09:43:02.624Z,12.77
2023-01-10T09:45:52.184Z,10.07
2023-01-10T09:48:38.660Z,11.77
2023-01-10T09:51:34.248Z,12.03
2023-01-10T09:54:16.194Z,10.00
2023-01-10T09:56:51.639Z,11.23
2023-01-10T09:59:31.463Z,13.13
2023-01-10T10:02:25.052Z,11.10
2023-01-10T10:05:13.959Z,9.87
2023-01-10T10:07:57.059Z,12.07
2023-01-10T10:10:41.470Z,9.93
2023-01-10T10:13:27.991Z,9.03
2023-01-10T10:16:16.061Z,10.33
2023-01-10T10:19:06.259Z,9.47
2023-01-10T10:21:53.679Z,11.47
2023-01-10T10:24:57.964Z,9.77
2023-01-10T10:27:41.353Z,10.93
2023-01-10T10:30:32.913Z,10.87
2023-01-10T10:33:29.114Z,10.23
2023-01-10T10:36:10.841Z,12.70
2023-01-10T10:38:49.024Z,9.47
2023-01-10T10:41:36.019Z,11.83
2023-01-10T10:44:32.790Z,9.73
2023-01-10T10:47:17.118Z,8.83
2023-01-10T10:49:59.724Z,6.03
2023-01-10T10:52:38.080Z,10.63
2023-01-10T10:55:17.082Z,9.67
2023-01-10T10:57:59.926Z,10.90
2023-01-10T11:00:35.632Z,6.50
2023-01-10T11:03:28.634Z,14.87
2023-01-10T11:06:03.115Z,9.10
2023-01-10T11:08:42.113Z,11.37
2023-01-10T11:11:25.393Z,6.63
2023-01-10T11:14:03.922Z,10.60
2023-01-10T11:16:40.314Z,8.53
2023-01-10T11:19:22.773Z,12.50
2023-01-10T11:22:01.930Z,8.80
2023-01-10T11:24:40.967Z,12.77
2023-01-10T11:27:20.682Z,8.47
2023-01-10T11:30:00.859Z,10.63
2023-01-10T11:32:40.515Z,10.10
2023-01-10T11:35:24.340Z,10.80
2023-01-10T11:38:04.773Z,7.93
2023-01-10T11:40:39.683Z,8.80
2023-01-10T11:43:34.517Z,9.50
2023-01-10T11:46:20.607Z,12.33
2023-01-10T11:49:06.672Z,8.47
2023-01-10T11:51:48.693Z,9.33
2023-01-10T11:54:25.938Z,9.17
2023-01-10T11:57:05.336Z,8.20
2023-01-10T11:59:39.491Z,10.13
2023-01-10T12:02:26.842Z,8.60
2023-01-10T12:05:06.053Z,5.47
2023-01-10T12:08:00.230Z,10.13
2023-01-10T12:10:36.154Z,6.80
2023-01-10T12:13:18.027Z,8.47
2023-01-10T12:15:52.882Z,8.17
2023-01-10T12:18:27.531Z,9.87
2023-01-10T12:21:01.785Z,9.00
2023-01-10T12:23:41.436Z,10.30
2023-01-10T12:26:15.580Z,10.73
2023-01-10T12:28:58.719Z,8.93
2023-01-10T12:31:35.747Z,9.20
2023-01-10T12:34:21.537Z,8.33
2023-01-10T12:37:07.236Z,8.37
2023-01-10T12:39:46.348Z,9.93
2023-01-10T12:43:03.376Z,10.17
2023-01-10T12:45:48.443Z,8.33
2023-01-10T12:48:36.466Z,6.93
2023-01-10T12:51:20.776Z,8.67
2023-01-10T12:54:01.868Z,7.07
2023-01-10T12:56:36.951Z,7.17
2023-01-10T12:59:36.347Z,10.27
2023-01-10T13:02:25.812Z,8.13
2023-01-10T13:05:05.633Z,8.20
2023-01-10T13:07:41.662Z,10.37
2023-01-10T13:10:22.061Z,9.50
2023-01-10T13:13:10.949Z,9.20
2023-01-10T13:15:54.892Z,5.97
2023-01-10T13:18:34.872Z,11.73
2023-01-10T13:21:13.959Z,11.37
2023-01-10T13:23:53.085Z,8.37
2023-01-10T13:26:27.155Z,8.57
2023-01-10T13:29:04.060Z,8.70
2023-01-10T13:31:38.039Z,7.37
2023-01-10T13:34:17.660Z,7.50
2023-01-10T13:36:58.165Z,5.97
2023-01-10T13:39:37.861Z,9.83
2023-01-10T13:42:45.162Z,7.00
2023-01-10T13:45:28.352Z,7.27
2023-01-10T13:48:26.214Z,6.03
2023-01-10T13:51:15.971Z,7.30
2023-01-10T13:54:01.386Z,7.10
2023-01-10T13:56:40.885Z,6.87
2023-01-10T13:59:54.779Z,6.40
2023-01-10T14:02:32.146Z,9.73
2023-01-10T14:05:17.972Z,6.90
2023-01-10T14:07:55.325Z,7.03
2023-01-10T14:10:32.788Z,8.93
2023-01-10T14:13:20.687Z,6.23
2023-01-10T14:15:54.696Z,8.63
2023-01-10T14:18:35.838Z,7.93
2023-01-10T14:21:21.020Z,4.57
2023-01-10T14:23:57.963Z,6.27
2023-01-10T14:26:36.966Z,5.73
2023-01-10T14:29:19.339Z,8.67
2023-01-10T14:31:55.595Z,7.77
2023-01-10T14:34:32.459Z,7.67
2023-01-10T14:37:17.278Z,5.97
2023-01-10T14:39:55.999Z,7.33
2023-01-10T14:42:31.085Z,6.50
2023-01-10T14:45:21.520Z,8.97
2023-01-10T14:47:55.605Z,5.33
2023-01-10T14:50:32.778Z,8.17
2023-01-10T14:53:07.574Z,5.80
2023-01-10T14:55:44.541Z,8.10
2023-01-10T14:58:20.050Z,6.90
2023-01-10T15:00:57.406Z,8.23
2023-01-10T15:03:31.423Z,6.57
2023-01-10T15:06:05.300Z,6.57
2023-01-10T15:08:39.123Z,6.30
2023-01-10T15:11:15.988Z,6.87
2023-01-10T15:13:55.322Z,7.20
2023-01-10T15:16:31.695Z,5.93
2023-01-10T15:19:06.176Z,5.33
2023-01-10T15:21:45.201Z,7.33
2023-01-10T15:24:33.029Z,11.97
2023-01-10T15:27:14.400Z,4.77
2023-01-10T15:29:47.991Z,6.70
2023-01-10T15:32:29.896Z,5.90
2023-01-10T15:35:04.617Z,6.03
2023-01-10T15:37:45.410Z,10.43
2023-01-10T15:40:27.077Z,10.07
2023-01-10T15:43:25.718Z,5.83
2023-01-10T15:46:01.735Z,8.23
2023-01-10T15:48:41.128Z,5.33
2023-01-10T15:51:17.267Z,8.10
2023-01-10T15:54:03.413Z,6.63
2023-01-10T15:56:42.143Z,8.83
2023-01-10T15:59:27.673Z,5.87
2023-01-10T16:02:17.499Z,4.47
2023-01-10T16:04:56.746Z,6.73
2023-01-10T16:07:35.203Z,5.77
2023-01-10T16:10:20.552Z,9.23
2023-01-10T16:13:14.019Z,6.60
2023-01-10T16:15:47.498Z,8.77
2023-01-10T16:18:21.079Z,6.13
2023-01-10T16:21:00.784Z,10.10
2023-01-10T16:23:37.690Z,5.53
2023-01-10T16:26:11.742Z,7.73
2023-01-10T16:28:45.647Z,8.13
2023-01-10T16:31:19.263Z,4.60
2023-01-10T16:33:53.220Z,6.73
2023-01-10T16:36:28.236Z,7.67
2023-01-10T16:39:13.566Z,6.27
2023-01-10T16:42:06.392Z,5.63
2023-01-10T16:44:41.625Z,5.50
2023-01-10T16:47:15.405Z,7.37
2023-01-10T16:49:49.148Z,7.60
2023-01-10T16:52:24.148Z,7.07
2023-01-10T16:54:57.692Z,6.67
2023-01-10T16:57:31.467Z,6.93
2023-01-10T17:00:06.882Z,9.93
2023-01-10T17:02:41.333Z,7.70
2023-01-10T17:05:16.647Z,4.77
2023-01-10T17:07:52.275Z,7.90
2023-01-10T17:10:26.027Z,9.23
2023-01-10T17:13:00.344Z,8.00
2023-01-10T17:15:34.977Z,6.43
2023-01-10T17:18:08.748Z,7.70
2023-01-10T17:20:42.271Z,4.60
2023-01-10T17:23:17.577Z,5.27
2023-01-10T17:25:51.592Z,6.33
2023-01-10T17:28:25.118Z,5.40
2023-01-10T17:30:59.076Z,7.80
2023-01-10T17:33:34.164Z,6.00
2023-01-10T17:36:09.275Z,5.57
2023-01-10T17:38:44.392Z,4.77
2023-01-10T17:41:18.052Z,3.70
2023-01-10T17:43:51.680Z,4.77
2023-01-10T17:46:25.273Z,5.73
2023-01-10T17:48:58.816Z,4.63
2023-01-10T17:51:32.583Z,6.97
2023-01-10T17:54:08.189Z,5.27
2023-01-10T17:56:41.992Z,5.33
2023-01-10T17:59:15.849Z,4.00
2023-01-10T18:01:49.772Z,4.97
2023-01-10T18:04:23.874Z,4.50
2023-01-10T18:06:57.873Z,3.37
2023-01-10T18:09:33.241Z,7.37
2023-01-10T18:12:08.223Z,4.17
2023-01-10T18:14:41.851Z,4.97
2023-01-10T18:17:17.413Z,3.87
2023-01-10T18:19:51.415Z,3.90
2023-01-10T18:22:48.154Z,4.83
2023-01-10T18:25:24.519Z,2.23
2023-01-10T18:28:00.463Z,6.07
2023-01-10T18:30:34.354Z,3.23
2023-01-10T18:33:08.205Z,3.43
2023-01-10T18:35:42.229Z,4.20
2023-01-10T18:38:16.257Z,5.17
2023-01-10T18:40:53.495Z,3.57
2023-01-10T18:43:27.364Z,3.53
2023-01-10T18:46:03.935Z,4.50
2023-01-10T18:48:37.923Z,3.97
2023-01-10T18:51:14.956Z,2.50
2023-01-10T18:53:48.986Z,3.10
2023-01-10T18:56:23.837Z,2.23
2023-01-10T18:58:59.171Z,4.27
2023-01-10T19:01:34.688Z,6.43
2023-01-10T19:04:08.640Z,3.70
2023-01-10T19:06:44.725Z,3.17
2023-01-10T19:09:19.737Z,3.20
2023-01-10T19:11:54.945Z,4.17
2023-01-10T19:14:28.607Z,1.60
2023-01-10T19:17:02.065Z,2.60
2023-01-10T19:19:36.025Z,4.37
2023-01-10T19:22:09.835Z,1.43
2023-01-10T19:24:43.656Z,2.37
2023-01-10T19:27:19.516Z,2.00
2023-01-10T19:29:53.215Z,2.93
2023-01-10T19:32:27.905Z,2.13
2023-01-10T19:35:01.586Z,1.53
2023-01-10T19:37:35.662Z,4.20
2023-01-10T19:40:12.625Z,1.77
2023-01-10T19:42:47.661Z,1.83
2023-01-10T19:45:21.511Z,2.87
2023-01-10T19:47:55.484Z,3.33
2023-01-10T19:50:29.455Z,3.27
2023-01-10T19:53:03.078Z,2.37
2023-01-10T19:55:37.275Z,2.60
2023-01-10T19:58:13.188Z,1.70
2023-01-10T20:00:46.647Z,2.57
2023-01-10T20:03:20.458Z,2.37
2023-01-10T20:05:53.848Z,2.03
2023-01-10T20:08:27.254Z,1.87
2023-01-10T20:11:06.002Z,2.37
2023-01-10T20:13:45.028Z,1.73
2023-01-10T20:16:21.084Z,2.23
2023-01-10T20:18:54.717Z,3.90
2023-01-10T20:21:28.467Z,1.93
2023-01-10T20:24:02.455Z,2.50
2023-01-10T20:26:36.119Z,1.70
2023-01-10T20:29:12.499Z,1.77
2023-01-10T20:31:48.106Z,2.77
2023-01-10T20:34:23.199Z,3.10
2023-01-10T20:36:56.862Z,2.00
2023-01-10T20:39:30.903Z,1.73
2023-01-10T20:42:04.726Z,1.87
2023-01-10T20:44:40.253Z,2.27
2023-01-10T20:47:14.174Z,1.97
2023-01-10T20:49:48.291Z,2.60
2023-01-10T20:52:21.842Z,2.70
2023-01-10T20:54:55.734Z,3.00
2023-01-10T20:57:29.118Z,4.03
2023-01-10T21:00:04.266Z,2.20
2023-01-10T21:02:37.970Z,1.33
2023-01-10T21:05:11.709Z,1.63
2023-01-10T21:07:45.329Z,1.90
2023-01-10T21:10:19.837Z,2.83
2023-01-10T21:12:53.661Z,1.83
2023-01-10T21:15:29.089Z,1.43
2023-01-10T21:18:02.844Z,1.40
2023-01-10T21:20:36.651Z,1.43
2023-01-10T21:23:11.359Z,2.23
2023-01-10T21:25:46.004Z,2.10
2023-01-10T21:28:20.842Z,0.77
2023-01-10T21:30:56.031Z,1.13
2023-01-10T21:33:29.463Z,1.43
2023-01-10T21:36:03.269Z,1.50
2023-01-10T21:38:37.909Z,1.30
2023-01-10T21:41:15.447Z,1.67
2023-01-10T21:43:49.308Z,2.70
2023-01-10T21:46:24.316Z,0.70
2023-01-10T21:48:58.758Z,2.03
2023-01-10T21:51:32.470Z,1.17
2023-01-10T21:54:06.298Z,1.17
2023-01-10T21:56:39.769Z,0.87
2023-01-10T21:59:13.555Z,1.00
2023-01-10T22:01:49.818Z,1.57
2023-01-10T22:04:24.452Z,1.50
2023-01-10T22:06:58.697Z,1.73
2023-01-10T22:09:32.228Z,1.37
2023-01-10T22:12:06.460Z,1.87
2023-01-10T22:14:40.440Z,0.77
2023-01-10T22:17:16.558Z,1.20
2023-01-10T22:19:50.580Z,0.70
2023-01-10T22:22:24.297Z,2.23
2023-01-10T22:24:57.886Z,0.60
2023-01-10T22:27:31.969Z,1.13
2023-01-10T22:30:07.361Z,1.33
2023-01-10T22:32:42.492Z,1.10
2023-01-10T22:35:17.144Z,0.60
2023-01-10T22:37:50.947Z,0.70
2023-01-10T22:40:25.210Z,0.67
2023-01-10T22:42:58.982Z,1.43
2023-01-10T22:45:33.426Z,0.97
2023-01-10T22:48:08.964Z,1.77
2023-01-10T22:50:50.143Z,0.80
2023-01-10T22:53:23.669Z,2.10
2023-01-10T22:55:57.436Z,1.00
2023-01-10T22:58:31.548Z,1.03
2023-01-10T23:01:06.620Z,0.60
2023-01-10T23:03:41.943Z,0.70
2023-01-10T23:06:17.262Z,0.60
2023-01-10T23:08:51.785Z,0.77
2023-01-10T23:11:25.446Z,1.00
2023-01-10T23:13:58.979Z,0.80
2023-01-10T23:16:33.115Z,0.60
2023-01-10T23:19:07.999Z,0.50
2023-01-10T23:21:41.320Z,0.67
2023-01-10T23:24:17.071Z,0.60
2023-01-10T23:26:51.567Z,0.93
2023-01-10T23:29:25.607Z,1.13
2023-01-10T23:31:59.276Z,0.50
2023-01-10T23:34:34.234Z,0.43
2023-01-10T23:37:07.859Z,0.53
2023-01-10T23:39:41.509Z,0.50
2023-01-10T23:42:15.806Z,0.93
2023-01-10T23:44:49.393Z,0.70
2023-01-10T23:47:22.974Z,0.57
2023-01-10T23:49:58.195Z,0.60
2023-01-10T23:52:31.971Z,0.70
2023-01-10T23:55:07.851Z,1.03
2023-01-10T23:57:41.247Z,1.00
